sensor_id;sensor_type;location;lat;lon;timestamp;P1;durP1;ratioP1;P2;durP2;ratioP2
82948;SDS011;72736;50.236;18.876;2023-10-31T00:02:57;12.20;;;6.60;;
82948;SDS011;72736;50.236;18.876;2023-10-31T00:13:07;9.10;;;4.70;;
82948;SDS011;72736;50.236;18.876;2023-10-31T00:18:13;9.40;;;4.20;;
82948;SDS011;72736;50.236;18.876;2023-10-31T00:23:19;8.90;;;3.70;;
82948;SDS011;72736;50.236;18.876;2023-10-31T00:28:26;7.00;;;2.90;;
82948;SDS011;72736;50.236;18.876;2023-10-31T00:33:31;7.10;;;2.30;;
82948;SDS011;72736;50.236;18.876;2023-10-31T00:38:38;7.20;;;2.50;;
82948;SDS011;72736;50.236;18.876;2023-10-31T00:43:43;5.90;;;1.70;;
82948;SDS011;72736;50.236;18.876;2023-10-31T00:58:57;3.80;;;1.60;;
82948;SDS011;72736;50.236;18.876;2023-10-31T01:04:03;4.60;;;1.70;;
82948;SDS011;72736;50.236;18.876;2023-10-31T01:09:09;4.50;;;1.60;;
82948;SDS011;72736;50.236;18.876;2023-10-31T01:14:16;7.50;;;1.80;;
82948;SDS011;72736;50.236;18.876;2023-10-31T01:19:21;3.60;;;1.30;;
82948;SDS011;72736;50.236;18.876;2023-10-31T01:24:27;4.50;;;1.50;;
82948;SDS011;72736;50.236;18.876;2023-10-31T01:29:33;4.50;;;1.50;;
82948;SDS011;72736;50.236;18.876;2023-10-31T01:34:38;3.20;;;1.40;;
82948;SDS011;72736;50.236;18.876;2023-10-31T01:39:44;3.90;;;1.40;;
82948;SDS011;72736;50.236;18.876;2023-10-31T01:44:50;3.30;;;1.40;;
82948;SDS011;72736;50.236;18.876;2023-10-31T01:49:55;6.20;;;1.40;;
82948;SDS011;72736;50.236;18.876;2023-10-31T01:55:02;4.80;;;1.40;;
82948;SDS011;72736;50.236;18.876;2023-10-31T02:00:09;4.40;;;1.50;;
82948;SDS011;72736;50.236;18.876;2023-10-31T02:05:16;4.80;;;1.40;;
82948;SDS011;72736;50.236;18.876;2023-10-31T02:10:22;4.50;;;1.40;;
82948;SDS011;72736;50.236;18.876;2023-10-31T02:20:32;4.10;;;1.40;;
82948;SDS011;72736;50.236;18.876;2023-10-31T02:35:45;6.80;;;1.40;;
82948;SDS011;72736;50.236;18.876;2023-10-31T02:40:51;4.60;;;1.20;;
82948;SDS011;72736;50.236;18.876;2023-10-31T02:51:01;3.40;;;1.20;;
82948;SDS011;72736;50.236;18.876;2023-10-31T02:56:07;5.00;;;1.40;;
82948;SDS011;72736;50.236;18.876;2023-10-31T03:01:13;6.40;;;1.80;;
82948;SDS011;72736;50.236;18.876;2023-10-31T03:06:21;6.10;;;1.20;;
82948;SDS011;72736;50.236;18.876;2023-10-31T03:11:27;5.90;;;1.30;;
82948;SDS011;72736;50.236;18.876;2023-10-31T03:16:33;3.00;;;1.30;;
82948;SDS011;72736;50.236;18.876;2023-10-31T03:21:39;4.70;;;1.50;;
82948;SDS011;72736;50.236;18.876;2023-10-31T03:31:48;5.10;;;1.70;;
82948;SDS011;72736;50.236;18.876;2023-10-31T03:36:54;3.10;;;1.60;;
82948;SDS011;72736;50.236;18.876;2023-10-31T03:47:04;4.10;;;1.40;;
82948;SDS011;72736;50.236;18.876;2023-10-31T03:52:10;3.20;;;1.30;;
82948;SDS011;72736;50.236;18.876;2023-10-31T03:57:16;5.00;;;1.60;;
82948;SDS011;72736;50.236;18.876;2023-10-31T04:07:26;5.00;;;1.60;;
82948;SDS011;72736;50.236;18.876;2023-10-31T04:12:31;3.70;;;1.20;;
82948;SDS011;72736;50.236;18.876;2023-10-31T04:22:41;5.00;;;1.40;;
82948;SDS011;72736;50.236;18.876;2023-10-31T04:27:47;3.70;;;1.30;;
82948;SDS011;72736;50.236;18.876;2023-10-31T04:37:57;5.20;;;1.60;;
82948;SDS011;72736;50.236;18.876;2023-10-31T04:43:02;5.30;;;1.60;;
82948;SDS011;72736;50.236;18.876;2023-10-31T04:48:08;4.70;;;1.70;;
82948;SDS011;72736;50.236;18.876;2023-10-31T04:53:14;4.90;;;1.40;;
82948;SDS011;72736;50.236;18.876;2023-10-31T04:58:20;4.50;;;1.70;;
82948;SDS011;72736;50.236;18.876;2023-10-31T05:03:25;3.10;;;1.30;;
82948;SDS011;72736;50.236;18.876;2023-10-31T05:08:31;5.10;;;2.30;;
82948;SDS011;72736;50.236;18.876;2023-10-31T05:13:37;2.90;;;1.40;;
82948;SDS011;72736;50.236;18.876;2023-10-31T05:18:43;4.30;;;1.90;;
82948;SDS011;72736;50.236;18.876;2023-10-31T05:23:49;7.50;;;1.70;;
82948;SDS011;72736;50.236;18.876;2023-10-31T05:28:55;3.40;;;1.50;;
82948;SDS011;72736;50.236;18.876;2023-10-31T05:34:01;5.10;;;1.90;;
82948;SDS011;72736;50.236;18.876;2023-10-31T05:39:07;6.40;;;1.80;;
82948;SDS011;72736;50.236;18.876;2023-10-31T05:44:13;7.40;;;2.40;;
82948;SDS011;72736;50.236;18.876;2023-10-31T05:49:19;5.00;;;1.30;;
82948;SDS011;72736;50.236;18.876;2023-10-31T05:54:25;4.50;;;1.40;;
82948;SDS011;72736;50.236;18.876;2023-10-31T05:59:31;3.70;;;1.50;;
82948;SDS011;72736;50.236;18.876;2023-10-31T06:04:37;4.00;;;1.50;;
82948;SDS011;72736;50.236;18.876;2023-10-31T06:09:42;4.10;;;1.60;;
82948;SDS011;72736;50.236;18.876;2023-10-31T06:14:48;5.00;;;1.80;;
82948;SDS011;72736;50.236;18.876;2023-10-31T06:19:54;6.60;;;1.80;;
82948;SDS011;72736;50.236;18.876;2023-10-31T06:25:00;7.20;;;2.60;;
82948;SDS011;72736;50.236;18.876;2023-10-31T06:30:08;5.90;;;2.50;;
82948;SDS011;72736;50.236;18.876;2023-10-31T06:35:28;4.70;;;1.70;;
82948;SDS011;72736;50.236;18.876;2023-10-31T06:40:34;7.70;;;1.60;;
82948;SDS011;72736;50.236;18.876;2023-10-31T06:45:39;5.90;;;1.80;;
82948;SDS011;72736;50.236;18.876;2023-10-31T06:50:45;3.70;;;1.40;;
82948;SDS011;72736;50.236;18.876;2023-10-31T06:55:51;8.10;;;2.70;;
82948;SDS011;72736;50.236;18.876;2023-10-31T07:00:57;4.50;;;1.50;;
82948;SDS011;72736;50.236;18.876;2023-10-31T07:06:03;5.60;;;1.70;;
82948;SDS011;72736;50.236;18.876;2023-10-31T07:11:09;4.30;;;1.50;;
82948;SDS011;72736;50.236;18.876;2023-10-31T07:16:15;4.00;;;1.30;;
82948;SDS011;72736;50.236;18.876;2023-10-31T07:21:20;5.00;;;1.40;;
82948;SDS011;72736;50.236;18.876;2023-10-31T07:26:26;8.80;;;1.90;;
82948;SDS011;72736;50.236;18.876;2023-10-31T07:31:32;5.90;;;1.90;;
82948;SDS011;72736;50.236;18.876;2023-10-31T07:36:41;4.70;;;2.00;;
82948;SDS011;72736;50.236;18.876;2023-10-31T07:41:47;7.20;;;2.00;;
82948;SDS011;72736;50.236;18.876;2023-10-31T07:46:53;8.70;;;2.30;;
82948;SDS011;72736;50.236;18.876;2023-10-31T07:51:59;8.70;;;3.00;;
82948;SDS011;72736;50.236;18.876;2023-10-31T07:57:05;9.00;;;2.50;;
82948;SDS011;72736;50.236;18.876;2023-10-31T08:02:11;7.10;;;2.80;;
82948;SDS011;72736;50.236;18.876;2023-10-31T08:07:17;6.90;;;2.10;;
82948;SDS011;72736;50.236;18.876;2023-10-31T08:12:22;5.40;;;1.60;;
82948;SDS011;72736;50.236;18.876;2023-10-31T08:17:28;4.70;;;1.90;;
82948;SDS011;72736;50.236;18.876;2023-10-31T08:22:34;4.90;;;2.00;;
82948;SDS011;72736;50.236;18.876;2023-10-31T08:27:39;5.10;;;2.10;;
82948;SDS011;72736;50.236;18.876;2023-10-31T08:32:45;5.50;;;2.30;;
82948;SDS011;72736;50.236;18.876;2023-10-31T08:37:51;5.40;;;2.30;;
82948;SDS011;72736;50.236;18.876;2023-10-31T08:42:56;9.10;;;2.70;;
82948;SDS011;72736;50.236;18.876;2023-10-31T08:48:04;8.00;;;3.10;;
82948;SDS011;72736;50.236;18.876;2023-10-31T08:53:09;7.40;;;3.00;;
82948;SDS011;72736;50.236;18.876;2023-10-31T08:58:16;5.90;;;3.50;;
82948;SDS011;72736;50.236;18.876;2023-10-31T09:03:22;6.00;;;2.60;;
82948;SDS011;72736;50.236;18.876;2023-10-31T09:08:27;6.60;;;3.10;;
82948;SDS011;72736;50.236;18.876;2023-10-31T09:18:37;4.40;;;2.40;;
82948;SDS011;72736;50.236;18.876;2023-10-31T09:28:47;7.00;;;3.00;;
82948;SDS011;72736;50.236;18.876;2023-10-31T09:33:53;5.80;;;2.90;;
82948;SDS011;72736;50.236;18.876;2023-10-31T09:38:59;7.10;;;3.10;;
82948;SDS011;72736;50.236;18.876;2023-10-31T09:44:06;6.50;;;3.10;;
82948;SDS011;72736;50.236;18.876;2023-10-31T09:49:12;6.20;;;2.70;;
82948;SDS011;72736;50.236;18.876;2023-10-31T09:54:20;4.90;;;2.40;;
82948;SDS011;72736;50.236;18.876;2023-10-31T09:59:30;5.30;;;2.70;;
82948;SDS011;72736;50.236;18.876;2023-10-31T10:04:35;5.90;;;2.10;;
82948;SDS011;72736;50.236;18.876;2023-10-31T10:09:42;6.90;;;3.00;;
82948;SDS011;72736;50.236;18.876;2023-10-31T10:14:49;6.60;;;2.20;;
82948;SDS011;72736;50.236;18.876;2023-10-31T10:20:05;5.60;;;2.40;;
82948;SDS011;72736;50.236;18.876;2023-10-31T10:25:14;4.50;;;2.40;;
82948;SDS011;72736;50.236;18.876;2023-10-31T10:30:21;7.40;;;2.60;;
82948;SDS011;72736;50.236;18.876;2023-10-31T10:35:29;6.00;;;2.40;;
82948;SDS011;72736;50.236;18.876;2023-10-31T10:40:35;3.70;;;2.10;;
82948;SDS011;72736;50.236;18.876;2023-10-31T10:45:43;5.10;;;2.40;;
82948;SDS011;72736;50.236;18.876;2023-10-31T10:50:57;6.40;;;2.50;;
82948;SDS011;72736;50.236;18.876;2023-10-31T10:56:16;7.30;;;2.50;;
82948;SDS011;72736;50.236;18.876;2023-10-31T11:01:28;5.00;;;1.90;;
82948;SDS011;72736;50.236;18.876;2023-10-31T11:06:34;4.30;;;2.30;;
82948;SDS011;72736;50.236;18.876;2023-10-31T11:11:43;3.90;;;1.80;;
82948;SDS011;72736;50.236;18.876;2023-10-31T11:16:52;4.10;;;2.00;;
82948;SDS011;72736;50.236;18.876;2023-10-31T11:22:03;3.70;;;2.00;;
82948;SDS011;72736;50.236;18.876;2023-10-31T11:27:11;4.50;;;1.90;;
82948;SDS011;72736;50.236;18.876;2023-10-31T11:32:17;4.40;;;1.80;;
82948;SDS011;72736;50.236;18.876;2023-10-31T11:37:26;3.60;;;1.60;;
82948;SDS011;72736;50.236;18.876;2023-10-31T11:42:37;4.30;;;1.80;;
82948;SDS011;72736;50.236;18.876;2023-10-31T11:47:47;4.40;;;1.90;;
82948;SDS011;72736;50.236;18.876;2023-10-31T11:53:05;4.80;;;1.90;;
82948;SDS011;72736;50.236;18.876;2023-10-31T11:58:13;4.20;;;2.10;;
82948;SDS011;72736;50.236;18.876;2023-10-31T12:03:23;3.90;;;1.80;;
82948;SDS011;72736;50.236;18.876;2023-10-31T12:08:29;5.00;;;1.80;;
82948;SDS011;72736;50.236;18.876;2023-10-31T12:13:37;5.80;;;1.90;;
82948;SDS011;72736;50.236;18.876;2023-10-31T12:18:44;3.70;;;1.80;;
82948;SDS011;72736;50.236;18.876;2023-10-31T12:24:03;5.20;;;1.90;;
82948;SDS011;72736;50.236;18.876;2023-10-31T12:29:11;7.00;;;1.80;;
82948;SDS011;72736;50.236;18.876;2023-10-31T12:34:18;4.50;;;1.90;;
82948;SDS011;72736;50.236;18.876;2023-10-31T12:39:26;5.10;;;1.90;;
82948;SDS011;72736;50.236;18.876;2023-10-31T12:44:32;4.70;;;1.90;;
82948;SDS011;72736;50.236;18.876;2023-10-31T12:49:39;6.80;;;2.40;;
82948;SDS011;72736;50.236;18.876;2023-10-31T12:54:45;5.60;;;2.00;;
82948;SDS011;72736;50.236;18.876;2023-10-31T12:59:50;4.90;;;2.20;;
82948;SDS011;72736;50.236;18.876;2023-10-31T13:05:08;4.00;;;2.10;;
82948;SDS011;72736;50.236;18.876;2023-10-31T13:10:16;4.20;;;2.10;;
82948;SDS011;72736;50.236;18.876;2023-10-31T13:15:23;4.20;;;1.60;;
82948;SDS011;72736;50.236;18.876;2023-10-31T13:20:29;5.50;;;2.00;;
82948;SDS011;72736;50.236;18.876;2023-10-31T13:25:35;5.50;;;2.30;;
82948;SDS011;72736;50.236;18.876;2023-10-31T13:30:41;5.00;;;2.60;;
82948;SDS011;72736;50.236;18.876;2023-10-31T13:35:49;5.00;;;2.70;;
82948;SDS011;72736;50.236;18.876;2023-10-31T13:40:55;6.20;;;3.10;;
82948;SDS011;72736;50.236;18.876;2023-10-31T13:46:03;5.70;;;3.00;;
82948;SDS011;72736;50.236;18.876;2023-10-31T13:51:10;6.80;;;3.10;;
82948;SDS011;72736;50.236;18.876;2023-10-31T13:56:16;12.80;;;4.70;;
82948;SDS011;72736;50.236;18.876;2023-10-31T14:01:22;7.80;;;3.60;;
82948;SDS011;72736;50.236;18.876;2023-10-31T14:06:28;5.90;;;3.30;;
82948;SDS011;72736;50.236;18.876;2023-10-31T14:11:35;9.20;;;3.40;;
82948;SDS011;72736;50.236;18.876;2023-10-31T14:16:41;8.50;;;3.80;;
82948;SDS011;72736;50.236;18.876;2023-10-31T14:21:48;6.90;;;4.30;;
82948;SDS011;72736;50.236;18.876;2023-10-31T14:26:55;8.90;;;4.90;;
82948;SDS011;72736;50.236;18.876;2023-10-31T14:32:06;11.30;;;5.70;;
82948;SDS011;72736;50.236;18.876;2023-10-31T14:37:13;9.30;;;5.10;;
82948;SDS011;72736;50.236;18.876;2023-10-31T14:47:23;7.60;;;3.40;;
82948;SDS011;72736;50.236;18.876;2023-10-31T14:52:29;6.30;;;3.60;;
82948;SDS011;72736;50.236;18.876;2023-10-31T14:57:36;7.60;;;4.10;;
82948;SDS011;72736;50.236;18.876;2023-10-31T15:02:42;6.80;;;3.50;;
82948;SDS011;72736;50.236;18.876;2023-10-31T15:07:48;9.50;;;4.40;;
82948;SDS011;72736;50.236;18.876;2023-10-31T15:12:58;9.40;;;4.40;;
82948;SDS011;72736;50.236;18.876;2023-10-31T15:18:06;10.00;;;4.80;;
82948;SDS011;72736;50.236;18.876;2023-10-31T15:28:17;9.00;;;4.50;;
82948;SDS011;72736;50.236;18.876;2023-10-31T15:33:23;9.60;;;4.00;;
82948;SDS011;72736;50.236;18.876;2023-10-31T15:38:29;7.90;;;4.10;;
82948;SDS011;72736;50.236;18.876;2023-10-31T15:48:39;11.00;;;5.40;;
82948;SDS011;72736;50.236;18.876;2023-10-31T15:53:45;10.60;;;5.20;;
82948;SDS011;72736;50.236;18.876;2023-10-31T16:03:55;8.00;;;4.20;;
82948;SDS011;72736;50.236;18.876;2023-10-31T16:09:00;8.50;;;4.40;;
82948;SDS011;72736;50.236;18.876;2023-10-31T16:14:07;12.30;;;5.70;;
82948;SDS011;72736;50.236;18.876;2023-10-31T16:19:12;16.50;;;8.50;;
82948;SDS011;72736;50.236;18.876;2023-10-31T16:24:18;19.20;;;11.00;;
82948;SDS011;72736;50.236;18.876;2023-10-31T16:34:28;14.70;;;7.10;;
82948;SDS011;72736;50.236;18.876;2023-10-31T16:44:38;17.80;;;8.90;;
82948;SDS011;72736;50.236;18.876;2023-10-31T16:49:44;21.10;;;9.50;;
82948;SDS011;72736;50.236;18.876;2023-10-31T16:54:50;24.30;;;11.40;;
82948;SDS011;72736;50.236;18.876;2023-10-31T16:59:55;20.90;;;10.50;;
82948;SDS011;72736;50.236;18.876;2023-10-31T17:05:01;22.40;;;11.50;;
82948;SDS011;72736;50.236;18.876;2023-10-31T17:10:08;24.50;;;12.10;;
82948;SDS011;72736;50.236;18.876;2023-10-31T17:15:14;21.20;;;11.10;;
82948;SDS011;72736;50.236;18.876;2023-10-31T17:20:20;19.50;;;10.40;;
82948;SDS011;72736;50.236;18.876;2023-10-31T17:25:26;21.00;;;11.50;;
82948;SDS011;72736;50.236;18.876;2023-10-31T17:30:32;19.70;;;11.00;;
82948;SDS011;72736;50.236;18.876;2023-10-31T17:35:38;23.90;;;11.90;;
82948;SDS011;72736;50.236;18.876;2023-10-31T17:40:44;21.20;;;11.40;;
82948;SDS011;72736;50.236;18.876;2023-10-31T17:45:49;20.90;;;10.60;;
82948;SDS011;72736;50.236;18.876;2023-10-31T17:56:01;15.80;;;8.00;;
82948;SDS011;72736;50.236;18.876;2023-10-31T18:01:07;16.40;;;8.70;;
82948;SDS011;72736;50.236;18.876;2023-10-31T18:06:13;14.60;;;8.20;;
82948;SDS011;72736;50.236;18.876;2023-10-31T18:11:19;12.70;;;7.30;;
82948;SDS011;72736;50.236;18.876;2023-10-31T18:21:29;11.70;;;5.50;;
82948;SDS011;72736;50.236;18.876;2023-10-31T18:26:35;9.30;;;5.10;;
82948;SDS011;72736;50.236;18.876;2023-10-31T18:31:44;7.90;;;4.40;;
82948;SDS011;72736;50.236;18.876;2023-10-31T18:36:52;9.80;;;4.80;;
82948;SDS011;72736;50.236;18.876;2023-10-31T18:47:11;7.50;;;3.80;;
82948;SDS011;72736;50.236;18.876;2023-10-31T18:52:17;6.60;;;3.40;;
82948;SDS011;72736;50.236;18.876;2023-10-31T18:57:22;6.40;;;3.40;;
82948;SDS011;72736;50.236;18.876;2023-10-31T19:02:28;8.90;;;3.80;;
82948;SDS011;72736;50.236;18.876;2023-10-31T19:12:39;7.80;;;4.00;;
82948;SDS011;72736;50.236;18.876;2023-10-31T19:17:44;8.50;;;4.20;;
82948;SDS011;72736;50.236;18.876;2023-10-31T19:22:50;8.70;;;5.00;;
82948;SDS011;72736;50.236;18.876;2023-10-31T19:27:56;10.30;;;5.20;;
82948;SDS011;72736;50.236;18.876;2023-10-31T19:33:03;12.90;;;4.80;;
82948;SDS011;72736;50.236;18.876;2023-10-31T19:43:13;8.60;;;4.60;;
82948;SDS011;72736;50.236;18.876;2023-10-31T19:48:19;8.90;;;4.80;;
82948;SDS011;72736;50.236;18.876;2023-10-31T19:58:29;13.00;;;5.90;;
82948;SDS011;72736;50.236;18.876;2023-10-31T20:08:39;10.40;;;5.40;;
82948;SDS011;72736;50.236;18.876;2023-10-31T20:18:49;9.80;;;6.00;;
82948;SDS011;72736;50.236;18.876;2023-10-31T20:23:55;10.70;;;5.70;;
82948;SDS011;72736;50.236;18.876;2023-10-31T20:29:00;14.60;;;6.30;;
82948;SDS011;72736;50.236;18.876;2023-10-31T20:34:06;14.00;;;5.40;;
82948;SDS011;72736;50.236;18.876;2023-10-31T20:39:12;10.70;;;5.30;;
82948;SDS011;72736;50.236;18.876;2023-10-31T20:44:18;10.10;;;4.80;;
82948;SDS011;72736;50.236;18.876;2023-10-31T20:49:24;9.30;;;5.20;;
82948;SDS011;72736;50.236;18.876;2023-10-31T20:59:34;8.70;;;4.90;;
82948;SDS011;72736;50.236;18.876;2023-10-31T21:09:44;11.20;;;5.80;;
82948;SDS011;72736;50.236;18.876;2023-10-31T21:14:51;14.30;;;6.40;;
82948;SDS011;72736;50.236;18.876;2023-10-31T21:19:57;10.30;;;5.60;;
82948;SDS011;72736;50.236;18.876;2023-10-31T21:25:03;14.00;;;6.70;;
82948;SDS011;72736;50.236;18.876;2023-10-31T21:30:10;10.20;;;5.70;;
82948;SDS011;72736;50.236;18.876;2023-10-31T21:35:16;13.20;;;5.90;;
82948;SDS011;72736;50.236;18.876;2023-10-31T21:40:22;9.80;;;5.70;;
82948;SDS011;72736;50.236;18.876;2023-10-31T21:45:27;12.50;;;6.00;;
82948;SDS011;72736;50.236;18.876;2023-10-31T21:50:33;10.50;;;5.80;;
82948;SDS011;72736;50.236;18.876;2023-10-31T22:00:43;12.60;;;6.20;;
82948;SDS011;72736;50.236;18.876;2023-10-31T22:05:49;11.40;;;6.10;;
82948;SDS011;72736;50.236;18.876;2023-10-31T22:10:56;11.20;;;6.40;;
82948;SDS011;72736;50.236;18.876;2023-10-31T22:16:02;12.70;;;6.30;;
82948;SDS011;72736;50.236;18.876;2023-10-31T22:21:08;12.50;;;6.80;;
82948;SDS011;72736;50.236;18.876;2023-10-31T22:26:14;12.50;;;6.80;;
82948;SDS011;72736;50.236;18.876;2023-10-31T22:36:24;13.50;;;7.50;;
82948;SDS011;72736;50.236;18.876;2023-10-31T22:41:30;15.80;;;7.50;;
82948;SDS011;72736;50.236;18.876;2023-10-31T22:46:36;12.90;;;6.90;;
82948;SDS011;72736;50.236;18.876;2023-10-31T22:51:45;12.70;;;7.00;;
82948;SDS011;72736;50.236;18.876;2023-10-31T22:56:51;12.40;;;5.60;;
82948;SDS011;72736;50.236;18.876;2023-10-31T23:01:57;11.30;;;6.30;;
82948;SDS011;72736;50.236;18.876;2023-10-31T23:07:02;10.70;;;6.00;;
82948;SDS011;72736;50.236;18.876;2023-10-31T23:17:13;10.10;;;5.50;;
82948;SDS011;72736;50.236;18.876;2023-10-31T23:22:18;10.90;;;6.10;;
82948;SDS011;72736;50.236;18.876;2023-10-31T23:27:24;9.20;;;5.20;;
82948;SDS011;72736;50.236;18.876;2023-10-31T23:32:30;10.50;;;5.10;;
82948;SDS011;72736;50.236;18.876;2023-10-31T23:37:36;10.60;;;5.70;;
82948;SDS011;72736;50.236;18.876;2023-10-31T23:42:42;8.90;;;5.60;;
82948;SDS011;72736;50.236;18.876;2023-10-31T23:47:47;9.40;;;5.60;;
82948;SDS011;72736;50.236;18.876;2023-10-31T23:52:53;9.40;;;5.80;;
82948;SDS011;72736;50.236;18.876;2023-10-31T23:57:59;11.70;;;6.20;;
